createdAt,value
2022-08-25T00:03:50.273Z,14.27
2022-08-25T00:08:59.685Z,13.07
2022-08-25T00:14:11.576Z,13.63
2022-08-25T00:19:21.597Z,14.17
2022-08-25T00:24:27.738Z,12.50
2022-08-25T00:29:38.182Z,12.50
2022-08-25T00:34:43.177Z,13.33
2022-08-25T00:39:48.361Z,12.77
2022-08-25T00:44:56.434Z,13.67
2022-08-25T00:50:04.273Z,14.33
2022-08-25T00:55:14.652Z,12.90
2022-08-25T01:00:30.411Z,13.47
2022-08-25T01:05:35.950Z,13.13
2022-08-25T01:10:44.320Z,12.17
2022-08-25T01:15:55.942Z,11.83
2022-08-25T01:21:03.552Z,12.57
2022-08-25T01:26:12.743Z,12.93
2022-08-25T01:31:24.053Z,13.30
2022-08-25T01:36:33.323Z,12.00
2022-08-25T01:41:52.012Z,12.70
2022-08-25T01:46:57.458Z,13.70
2022-08-25T01:52:10.563Z,14.00
2022-08-25T01:57:15.829Z,12.87
2022-08-25T02:02:20.738Z,13.23
2022-08-25T02:07:28.338Z,11.93
2022-08-25T02:12:33.415Z,12.20
2022-08-25T02:17:40.418Z,12.50
2022-08-25T02:22:53.110Z,12.67
2022-08-25T02:28:02.663Z,13.23
2022-08-25T02:33:07.544Z,13.90
2022-08-25T02:38:14.984Z,14.30
2022-08-25T02:43:19.873Z,13.57
2022-08-25T02:48:24.963Z,12.67
2022-08-25T02:53:33.177Z,13.80
2022-08-25T02:58:39.360Z,14.80
2022-08-25T03:03:47.115Z,14.63
2022-08-25T03:08:55.631Z,16.33
2022-08-25T03:14:00.723Z,14.90
2022-08-25T03:19:06.002Z,15.23
2022-08-25T03:24:13.656Z,16.13
2022-08-25T03:29:19.062Z,16.90
2022-08-25T03:34:25.754Z,16.33
2022-08-25T03:39:33.716Z,15.87
2022-08-25T03:44:38.698Z,15.97
2022-08-25T03:49:43.878Z,15.60
2022-08-25T03:54:51.601Z,15.73
2022-08-25T03:59:56.702Z,14.83
2022-08-25T04:05:01.761Z,16.03
2022-08-25T04:10:11.234Z,15.63
2022-08-25T04:15:16.224Z,15.57
2022-08-25T04:20:21.527Z,17.47
2022-08-25T04:25:31.500Z,15.60
2022-08-25T04:30:36.355Z,16.63
2022-08-25T04:35:43.830Z,15.90
2022-08-25T04:40:58.810Z,16.00
2022-08-25T04:46:12.565Z,16.77
2022-08-25T04:51:20.392Z,15.43
2022-08-25T04:56:28.261Z,14.47
2022-08-25T05:01:33.604Z,14.57
2022-08-25T05:06:40.971Z,14.07
2022-08-25T05:11:48.635Z,16.07
2022-08-25T05:16:53.559Z,14.90
2022-08-25T05:21:58.558Z,15.73
2022-08-25T05:27:10.886Z,14.30
2022-08-25T05:32:15.906Z,14.63
2022-08-25T05:37:23.008Z,14.93
2022-08-25T05:42:31.092Z,14.57
2022-08-25T05:47:36.918Z,13.37
2022-08-25T05:52:43.442Z,14.43
2022-08-25T05:57:50.990Z,13.47
2022-08-25T06:02:56.395Z,15.23
2022-08-25T06:08:01.741Z,14.20
2022-08-25T06:13:29.030Z,14.93
2022-08-25T06:18:37.686Z,14.32
2022-08-25T06:23:43.275Z,15.55
2022-08-25T06:28:50.917Z,15.80
2022-08-25T06:33:56.472Z,15.65
2022-08-25T06:39:01.566Z,15.60
2022-08-25T06:44:11.571Z,15.57
2022-08-25T06:49:16.921Z,16.40
2022-08-25T06:54:21.907Z,16.90
2022-08-25T06:59:32.158Z,16.35
2022-08-25T07:04:38.787Z,15.73
2022-08-25T07:09:43.956Z,14.70
2022-08-25T07:15:10.199Z,14.38
2022-08-25T07:20:16.927Z,13.05
2022-08-25T07:25:24.367Z,13.20
2022-08-25T07:30:32.069Z,12.40
2022-08-25T07:35:38.002Z,13.30
2022-08-25T07:40:43.276Z,13.15
2022-08-25T07:45:53.408Z,12.82
2022-08-25T07:50:58.351Z,12.70
2022-08-25T08:01:15.928Z,10.10
2022-08-25T08:06:23.552Z,8.25
2022-08-25T08:11:31.839Z,8.70
2022-08-25T08:16:39.796Z,10.10
2022-08-25T08:21:46.798Z,8.80
2022-08-25T08:26:58.696Z,9.90
2022-08-25T08:32:09.124Z,8.55
2022-08-25T08:37:14.001Z,9.30
2022-08-25T08:42:35.659Z,8.07
2022-08-25T08:47:53.164Z,7.05
2022-08-25T08:53:04.158Z,7.28
2022-08-25T08:58:14.924Z,6.53
2022-08-25T09:03:32.498Z,6.65
2022-08-25T09:08:38.349Z,6.82
2022-08-25T09:14:07.181Z,8.35
2022-08-25T09:19:28.955Z,7.55
2022-08-25T09:24:52.704Z,7.88
2022-08-25T09:30:07.484Z,8.02
2022-08-25T09:35:22.614Z,9.13
2022-08-25T09:40:27.843Z,8.85
2022-08-25T09:45:43.622Z,7.45
2022-08-25T09:50:51.910Z,8.70
2022-08-25T09:56:04.865Z,7.55
2022-08-25T10:01:17.490Z,7.60
2022-08-25T10:06:27.306Z,7.90
2022-08-25T10:11:49.077Z,8.45
2022-08-25T10:16:55.361Z,7.80
2022-08-25T10:22:10.909Z,7.60
2022-08-25T10:27:28.739Z,7.55
2022-08-25T10:32:47.505Z,8.57
2022-08-25T10:38:11.725Z,8.55
2022-08-25T10:43:33.869Z,8.60
2022-08-25T10:48:53.774Z,8.25
2022-08-25T10:54:10.016Z,7.30
2022-08-25T10:59:36.199Z,8.10
2022-08-25T11:04:47.154Z,7.60
2022-08-25T11:10:00.686Z,7.57
2022-08-25T11:15:12.158Z,11.90
2022-08-25T11:20:26.819Z,8.18
2022-08-25T11:25:38.445Z,7.43
2022-08-25T11:30:44.708Z,7.38
2022-08-25T11:35:55.535Z,9.18
2022-08-25T11:41:13.103Z,8.02
2022-08-25T12:20:02.076Z,7.82
2022-08-25T12:25:11.775Z,7.32
2022-08-25T12:30:23.905Z,7.25
2022-08-25T12:35:35.920Z,6.60
2022-08-25T12:40:56.463Z,7.40
2022-08-25T12:46:31.972Z,6.93
2022-08-25T12:51:59.263Z,7.55
2022-08-25T12:57:09.554Z,6.80
2022-08-25T13:02:56.647Z,7.93
2022-08-25T13:08:26.917Z,8.35
2022-08-25T13:13:48.198Z,8.65
2022-08-25T13:18:53.627Z,7.75
2022-08-25T13:24:05.751Z,7.43
2022-08-25T13:29:18.408Z,8.13
2022-08-25T13:34:34.251Z,6.78
2022-08-25T13:39:56.542Z,7.43
2022-08-25T13:45:03.478Z,7.32
2022-08-25T13:50:35.457Z,6.65
2022-08-25T13:55:53.269Z,7.82
2022-08-25T14:01:22.787Z,7.88
2022-08-25T14:06:37.433Z,7.53
2022-08-25T14:11:50.224Z,6.68
2022-08-25T14:17:16.448Z,6.63
2022-08-25T14:22:27.228Z,6.22
2022-08-25T14:27:38.962Z,6.70
2022-08-25T14:32:56.346Z,7.15
2022-08-25T14:38:01.589Z,7.35
2022-08-25T14:43:10.851Z,8.95
2022-08-25T14:48:24.345Z,7.30
2022-08-25T14:53:30.007Z,7.85
2022-08-25T14:58:48.527Z,7.57
2022-08-25T15:04:04.147Z,7.40
2022-08-25T15:09:12.167Z,7.28
2022-08-25T15:14:28.881Z,7.15
2022-08-25T15:19:38.870Z,6.32
2022-08-25T15:24:43.844Z,7.47
2022-08-25T15:29:51.930Z,7.20
2022-08-25T15:34:57.770Z,8.00
2022-08-25T15:40:02.730Z,8.18
2022-08-25T15:45:15.234Z,8.40
2022-08-25T15:50:25.999Z,7.70
2022-08-25T15:55:33.233Z,8.18
2022-08-25T16:00:43.702Z,8.35
2022-08-25T16:05:57.170Z,8.70
2022-08-25T16:11:02.710Z,9.20
2022-08-25T16:16:10.516Z,8.82
2022-08-25T16:21:17.331Z,8.30
2022-08-25T16:26:22.264Z,8.65
2022-08-25T16:31:32.617Z,8.48
2022-08-25T16:36:38.156Z,8.73
2022-08-25T16:41:43.424Z,9.60
2022-08-25T16:46:54.313Z,8.85
2022-08-25T16:51:59.540Z,9.52
2022-08-25T16:57:05.912Z,9.30
2022-08-25T17:02:13.521Z,10.10
2022-08-25T17:07:23.696Z,10.70
2022-08-25T17:12:29.943Z,8.18
2022-08-25T17:17:37.517Z,9.57
2022-08-25T17:22:43.391Z,9.80
2022-08-25T17:27:48.470Z,9.63
2022-08-25T17:32:56.334Z,12.20
2022-08-25T17:38:01.325Z,9.98
2022-08-25T17:43:09.135Z,10.52
2022-08-25T17:48:18.128Z,10.77
2022-08-25T17:53:24.583Z,9.63
2022-08-25T17:58:30.650Z,10.63
2022-08-25T18:03:38.259Z,11.13
2022-08-25T18:08:43.627Z,10.77
2022-08-25T18:13:50.563Z,10.63
2022-08-25T18:18:58.984Z,12.38
2022-08-25T18:24:03.899Z,11.63
2022-08-25T18:29:12.177Z,11.55
2022-08-25T18:34:20.241Z,12.43
2022-08-25T18:39:37.624Z,12.80
2022-08-25T18:44:46.793Z,12.30
2022-08-25T18:49:54.911Z,11.20
2022-08-25T18:55:00.388Z,11.43
2022-08-25T19:00:08.844Z,12.13
2022-08-25T19:05:17.531Z,11.65
2022-08-25T19:10:24.087Z,12.00
2022-08-25T19:15:30.605Z,12.77
2022-08-25T19:20:41.356Z,12.98
2022-08-25T19:25:47.350Z,12.35
2022-08-25T19:30:52.560Z,13.32
2022-08-25T19:36:00.903Z,13.80
2022-08-25T19:41:10.710Z,14.52
2022-08-25T19:46:20.121Z,14.45
2022-08-25T19:51:27.780Z,13.63
2022-08-25T19:56:36.254Z,12.93
2022-08-25T20:01:42.992Z,14.13
2022-08-25T20:06:50.648Z,13.60
2022-08-25T20:11:56.439Z,14.10
2022-08-25T20:17:03.406Z,13.35
2022-08-25T20:22:24.960Z,13.82
2022-08-25T20:27:35.837Z,14.77
2022-08-25T20:32:42.555Z,13.13
2022-08-25T20:37:54.049Z,13.97
2022-08-25T20:43:03.132Z,13.57
2022-08-25T20:48:09.050Z,14.07
2022-08-25T20:53:18.511Z,14.10
2022-08-25T20:58:23.468Z,15.20
2022-08-25T21:03:31.808Z,14.17
2022-08-25T21:08:46.587Z,14.15
2022-08-25T21:13:51.977Z,15.27
2022-08-25T21:18:57.118Z,13.83
2022-08-25T21:24:09.690Z,15.30
2022-08-25T21:29:15.065Z,15.53
2022-08-25T21:34:21.496Z,15.80
2022-08-25T21:39:32.468Z,15.20
2022-08-25T21:44:37.365Z,15.47
2022-08-25T21:49:42.561Z,15.07
2022-08-25T21:54:50.111Z,15.10
2022-08-25T21:59:55.023Z,14.33
2022-08-25T22:05:00.167Z,14.67
2022-08-25T22:10:16.412Z,14.93
2022-08-25T22:15:23.427Z,15.20
2022-08-25T22:20:28.834Z,15.17
2022-08-25T22:25:36.327Z,15.67
2022-08-25T22:30:42.933Z,15.07
2022-08-25T22:35:48.063Z,15.97
2022-08-25T22:40:55.885Z,15.37
2022-08-25T22:46:05.219Z,18.23
2022-08-25T22:51:13.978Z,15.80
2022-08-25T22:56:29.887Z,15.60
2022-08-25T23:01:37.701Z,16.10
2022-08-25T23:06:44.731Z,16.00
2022-08-25T23:11:52.444Z,18.03
2022-08-25T23:16:58.553Z,18.77
2022-08-25T23:22:16.323Z,17.33
2022-08-25T23:27:24.571Z,19.00
2022-08-25T23:32:29.678Z,18.40
2022-08-25T23:37:35.343Z,19.10
2022-08-25T23:42:43.059Z,18.13
2022-08-25T23:47:52.594Z,18.57
2022-08-25T23:52:57.625Z,19.07
2022-08-25T23:58:06.164Z,19.83
